Time;durP1;ratioP1;P1;durP2;ratioP2;P2;SDS_P1;SDS_P2;PMS_P1;PMS_P2;Temp;Humidity;BMP_temperature;BMP_pressure;BME280_temperature;BME280_humidity;BME280_pressure;Samples;Min_cycle;Max_cycle;Signal;HPM_P1;HPM_P2
2022/10/15 00:01:12;;;;;;;16.10;10.93;;;13.50;99.90;;;;;;5035524;28;20210;-61
2022/10/15 00:03:39;;;;;;;16.80;11.33;;;13.40;99.90;;;;;;5035204;28;20241;-60
2022/10/15 00:06:08;;;;;;;20.70;12.17;;;13.40;99.90;;;;;;5035127;28;20210;-61
2022/10/15 00:08:35;;;;;;;18.60;11.40;;;13.30;99.90;;;;;;5035073;28;20217;-61
2022/10/15 00:11:04;;;;;;;18.47;11.30;;;13.30;99.90;;;;;;5035081;28;20214;-61
2022/10/15 00:13:31;;;;;;;18.90;12.57;;;13.20;99.90;;;;;;5035232;28;20210;-61
2022/10/15 00:15:58;;;;;;;19.20;13.00;;;13.20;99.90;;;;;;5035020;28;20213;-61
2022/10/15 00:18:26;;;;;;;20.97;12.50;;;13.20;99.90;;;;;;5034774;28;20267;-61
2022/10/15 00:20:53;;;;;;;21.83;12.87;;;13.10;99.90;;;;;;5035222;28;20202;-60
2022/10/15 00:23:20;;;;;;;24.60;12.93;;;13.10;99.90;;;;;;5034766;28;20210;-61
2022/10/15 00:25:47;;;;;;;21.07;13.27;;;13.10;99.90;;;;;;5034913;28;20226;-61
2022/10/15 00:28:13;;;;;;;24.17;14.10;;;13.20;99.90;;;;;;5034803;28;20214;-60
2022/10/15 00:30:40;;;;;;;24.03;13.93;;;13.20;99.90;;;;;;5034684;28;20238;-61
2022/10/15 00:33:06;;;;;;;21.93;13.87;;;13.10;99.90;;;;;;5034675;28;20210;-61
2022/10/15 00:35:34;;;;;;;21.77;13.57;;;13.10;99.90;;;;;;5034658;28;20229;-61
2022/10/15 00:38:01;;;;;;;25.90;14.97;;;13.10;99.90;;;;;;5034196;28;20264;-61
2022/10/15 00:40:28;;;;;;;22.57;13.83;;;13.10;99.90;;;;;;5034373;28;20771;-61
2022/10/15 00:42:54;;;;;;;19.90;13.03;;;13.10;99.90;;;;;;5034733;28;20264;-61
2022/10/15 00:45:21;;;;;;;19.87;13.03;;;13.10;99.90;;;;;;5034427;28;20222;-61
2022/10/15 00:47:49;;;;;;;25.70;14.47;;;13.10;99.90;;;;;;5034165;28;20202;-60
2022/10/15 00:50:18;;;;;;;23.60;14.60;;;13.10;99.90;;;;;;5034302;28;20234;-61
2022/10/15 00:53:02;;;;;;;22.50;14.20;;;13.10;99.90;;;;;;5034390;28;20268;-61
2022/10/15 00:55:31;;;;;;;23.93;13.87;;;13.10;99.90;;;;;;5034401;28;20198;-61
2022/10/15 00:58:01;;;;;;;24.77;14.23;;;13.10;99.90;;;;;;5034304;28;20210;-61
2022/10/15 01:00:28;;;;;;;21.97;14.63;;;13.10;99.90;;;;;;5034105;28;20313;-61
2022/10/15 01:02:55;;;;;;;27.13;13.20;;;13.10;99.90;;;;;;5034069;28;20261;-61
2022/10/15 01:05:23;;;;;;;24.13;13.83;;;13.10;99.90;;;;;;5034276;28;20276;-61
2022/10/15 01:07:51;;;;;;;21.37;14.37;;;13.10;99.90;;;;;;5033812;28;20202;-61
2022/10/15 01:10:20;;;;;;;23.80;13.53;;;13.10;99.90;;;;;;5034114;28;20230;-61
2022/10/15 01:12:56;;;;;;;26.00;13.50;;;13.10;99.90;;;;;;5034156;28;20210;-61
2022/10/15 01:15:27;;;;;;;21.40;13.77;;;13.10;99.90;;;;;;5033953;28;20206;-61
2022/10/15 01:17:58;;;;;;;21.93;14.07;;;13.10;99.90;;;;;;5033610;28;20672;-61
2022/10/15 01:20:45;;;;;;;23.23;14.63;;;13.10;99.90;;;;;;5033963;28;20273;-61
2022/10/15 01:23:32;;;;;;;23.63;13.57;;;13.10;99.90;;;;;;5033902;28;20210;-61
2022/10/15 01:26:18;;;;;;;24.37;14.40;;;13.10;99.90;;;;;;5033428;28;20225;-61
2022/10/15 01:28:53;;;;;;;30.93;14.43;;;13.10;99.90;;;;;;5033714;28;20226;-61
2022/10/15 01:31:29;;;;;;;21.97;15.10;;;13.10;99.90;;;;;;5033578;28;20202;-61
2022/10/15 01:34:02;;;;;;;29.03;14.90;;;13.10;99.90;;;;;;5033388;28;20637;-61
2022/10/15 01:36:34;;;;;;;26.67;15.07;;;13.10;99.90;;;;;;5033343;28;20206;-61
2022/10/15 01:39:10;;;;;;;26.27;15.80;;;13.10;99.90;;;;;;5033644;28;20234;-61
2022/10/15 01:41:43;;;;;;;24.80;15.50;;;13.10;99.90;;;;;;5033583;28;20206;-61
2022/10/15 01:44:12;;;;;;;25.33;15.37;;;13.10;99.90;;;;;;5033469;28;20230;-61
2022/10/15 01:46:45;;;;;;;27.90;15.30;;;13.10;99.90;;;;;;5033733;28;20240;-61
2022/10/15 01:49:15;;;;;;;24.57;15.20;;;13.00;99.90;;;;;;5033879;28;20246;-61
2022/10/15 01:51:43;;;;;;;27.47;16.13;;;13.10;99.90;;;;;;5033869;28;20249;-61
2022/10/15 01:54:13;;;;;;;27.67;15.60;;;13.10;99.90;;;;;;5033568;28;20268;-61
2022/10/15 01:56:45;;;;;;;27.73;16.43;;;13.20;99.90;;;;;;5033663;28;20252;-61
2022/10/15 01:59:12;;;;;;;25.03;16.37;;;13.20;99.90;;;;;;5033539;28;20250;-61
2022/10/15 02:01:43;;;;;;;26.37;15.33;;;13.20;99.90;;;;;;5033313;28;20214;-61
2022/10/15 02:04:20;;;;;;;30.63;15.67;;;13.20;99.90;;;;;;5033093;28;20217;-61
2022/10/15 02:06:51;;;;;;;29.60;16.50;;;13.20;99.90;;;;;;5032803;28;20209;-61
2022/10/15 02:09:27;;;;;;;31.47;16.50;;;13.20;99.90;;;;;;5032754;28;20230;-61
2022/10/15 02:12:07;;;;;;;29.93;17.10;;;13.20;99.90;;;;;;5032786;28;20689;-61
2022/10/15 02:14:42;;;;;;;28.17;16.63;;;13.20;99.90;;;;;;5032731;28;20252;-60
2022/10/15 02:17:11;;;;;;;29.50;16.47;;;13.20;99.90;;;;;;5032692;28;20723;-61
2022/10/15 02:19:43;;;;;;;35.10;18.40;;;13.20;99.90;;;;;;5032720;28;20610;-61
2022/10/15 02:22:16;;;;;;;27.93;16.63;;;13.20;99.90;;;;;;5032128;28;20551;-60
2022/10/15 02:24:48;;;;;;;30.90;17.33;;;13.20;99.90;;;;;;5032693;28;20504;-61
2022/10/15 02:27:18;;;;;;;30.53;18.77;;;13.20;99.90;;;;;;5032780;28;20206;-61
2022/10/15 02:29:46;;;;;;;33.87;19.70;;;13.20;99.90;;;;;;5032489;28;20675;-61
2022/10/15 02:32:16;;;;;;;31.93;17.67;;;13.20;99.90;;;;;;5032699;28;20240;-61
2022/10/15 02:34:45;;;;;;;33.20;18.43;;;13.20;99.90;;;;;;5032352;28;20206;-61
2022/10/15 02:37:12;;;;;;;32.63;19.50;;;13.10;99.90;;;;;;5033208;28;20203;-61
2022/10/15 02:39:39;;;;;;;33.53;19.80;;;13.10;99.90;;;;;;5033149;28;20782;-61
2022/10/15 02:42:06;;;;;;;32.47;19.67;;;13.10;99.90;;;;;;5032597;28;20210;-61
2022/10/15 02:44:33;;;;;;;32.90;20.43;;;13.10;99.90;;;;;;5032266;28;20705;-61
2022/10/15 02:47:00;;;;;;;36.33;20.83;;;13.10;99.90;;;;;;5031933;28;20206;-61
2022/10/15 02:49:28;;;;;;;40.53;21.40;;;13.10;99.90;;;;;;5032626;28;20226;-61
2022/10/15 02:51:55;;;;;;;39.67;22.33;;;13.10;99.90;;;;;;5032293;28;20226;-61
2022/10/15 02:54:22;;;;;;;48.47;22.67;;;13.00;99.90;;;;;;5032373;28;20206;-61
2022/10/15 02:56:48;;;;;;;42.17;22.67;;;13.00;99.90;;;;;;5031936;28;20214;-61
2022/10/15 02:59:15;;;;;;;39.90;21.87;;;13.00;99.90;;;;;;5031918;28;20226;-61
2022/10/15 03:01:42;;;;;;;41.77;21.63;;;13.00;99.90;;;;;;5032165;28;20206;-61
2022/10/15 03:04:08;;;;;;;43.27;22.33;;;13.00;99.90;;;;;;5031949;28;20732;-61
2022/10/15 03:06:36;;;;;;;49.37;25.00;;;13.00;99.90;;;;;;5031785;28;20260;-60
2022/10/15 03:09:03;;;;;;;41.10;22.37;;;13.00;99.90;;;;;;5032003;28;20230;-61
2022/10/15 03:11:30;;;;;;;44.00;22.50;;;13.10;99.90;;;;;;5031973;28;20293;-61
2022/10/15 03:13:57;;;;;;;55.43;24.60;;;13.00;99.90;;;;;;5031940;28;20210;-61
2022/10/15 03:16:23;;;;;;;43.67;23.30;;;13.00;99.90;;;;;;5031799;28;20555;-61
2022/10/15 03:18:50;;;;;;;49.90;24.90;;;13.00;99.90;;;;;;5031804;28;20771;-61
2022/10/15 03:21:17;;;;;;;47.77;24.53;;;12.90;99.90;;;;;;5031906;28;20205;-61
2022/10/15 03:23:45;;;;;;;49.03;23.93;;;12.90;99.90;;;;;;5031942;28;20206;-60
2022/10/15 03:26:11;;;;;;;47.40;24.20;;;12.90;99.90;;;;;;5031496;28;20674;-61
2022/10/15 03:28:38;;;;;;;51.23;24.50;;;12.90;99.90;;;;;;5031754;28;20653;-61
2022/10/15 03:31:05;;;;;;;51.13;24.27;;;12.90;99.90;;;;;;5030897;28;20657;-61
2022/10/15 03:33:32;;;;;;;54.97;25.90;;;12.80;99.90;;;;;;5032482;28;20233;-61
2022/10/15 03:35:58;;;;;;;46.00;24.00;;;12.80;99.90;;;;;;5034324;28;20206;-61
2022/10/15 03:38:25;;;;;;;54.87;26.33;;;12.80;99.90;;;;;;5034537;28;20231;-61
2022/10/15 03:40:53;;;;;;;51.43;24.63;;;12.70;99.90;;;;;;5034662;28;20206;-61
2022/10/15 03:43:19;;;;;;;48.87;24.47;;;12.70;99.90;;;;;;5034390;28;20210;-61
2022/10/15 03:45:46;;;;;;;50.20;24.77;;;12.70;99.90;;;;;;5034368;28;20230;-61
2022/10/15 03:48:13;;;;;;;53.07;25.60;;;12.60;99.90;;;;;;5034409;28;20206;-61
2022/10/15 03:50:39;;;;;;;53.17;24.43;;;12.60;99.90;;;;;;5034178;28;20255;-61
2022/10/15 03:53:06;;;;;;;51.10;24.27;;;12.60;99.90;;;;;;5034165;28;20696;-60
2022/10/15 03:55:33;;;;;;;52.70;24.73;;;12.50;99.90;;;;;;5034177;28;20204;-59
2022/10/15 03:58:01;;;;;;;51.10;25.87;;;12.50;99.90;;;;;;5033880;28;20206;-61
2022/10/15 04:00:28;;;;;;;44.93;24.27;;;12.50;99.90;;;;;;5034316;28;20604;-61
2022/10/15 04:02:55;;;;;;;43.30;24.13;;;12.40;99.90;;;;;;5034076;28;20260;-61
2022/10/15 04:05:21;;;;;;;54.87;24.83;;;12.30;99.90;;;;;;5034086;28;20222;-61
2022/10/15 04:07:48;;;;;;;47.97;24.67;;;12.20;99.90;;;;;;5033988;28;20237;-61
2022/10/15 04:10:15;;;;;;;57.47;27.00;;;12.20;99.90;;;;;;5033715;28;20226;-60
2022/10/15 04:12:41;;;;;;;65.30;26.87;;;12.20;99.90;;;;;;5033911;28;20256;-61
2022/10/15 04:15:10;;;;;;;54.33;27.67;;;12.30;99.90;;;;;;5034128;28;20213;-61
2022/10/15 04:17:36;;;;;;;60.23;27.33;;;12.30;99.90;;;;;;5033610;28;20256;-60
2022/10/15 04:20:03;;;;;;;58.47;27.57;;;12.30;99.90;;;;;;5033832;28;20238;-61
2022/10/15 04:22:30;;;;;;;63.97;29.23;;;12.30;99.90;;;;;;5033546;28;20217;-61
2022/10/15 04:24:57;;;;;;;70.00;29.77;;;12.40;99.90;;;;;;5033601;28;20216;-61
2022/10/15 04:27:24;;;;;;;66.33;31.10;;;12.40;99.90;;;;;;5033251;28;20214;-61
2022/10/15 04:29:50;;;;;;;72.80;31.53;;;12.40;99.90;;;;;;5019425;28;106054;-61
2022/10/15 04:32:18;;;;;;;68.30;30.27;;;12.40;99.90;;;;;;5028625;28;20210;-60
2022/10/15 04:34:46;;;;;;;76.90;32.97;;;12.40;99.90;;;;;;5034904;28;20206;-61
2022/10/15 04:37:13;;;;;;;75.03;33.07;;;12.40;99.90;;;;;;5034562;28;20214;-61
2022/10/15 04:39:40;;;;;;;79.07;32.23;;;12.50;99.90;;;;;;5034232;28;20660;-60
2022/10/15 04:42:06;;;;;;;78.77;30.80;;;12.40;99.90;;;;;;5034825;28;20214;-61
2022/10/15 04:44:33;;;;;;;71.37;32.43;;;12.40;99.90;;;;;;5034468;28;20213;-61
2022/10/15 04:47:01;;;;;;;71.73;31.33;;;12.50;99.90;;;;;;5034300;28;20647;-61
2022/10/15 04:49:29;;;;;;;73.40;32.37;;;12.50;99.90;;;;;;5034367;28;20226;-61
2022/10/15 04:51:56;;;;;;;74.03;32.27;;;12.50;99.90;;;;;;5034414;28;20237;-61
2022/10/15 04:54:23;;;;;;;83.57;34.90;;;12.50;99.90;;;;;;5034167;28;20214;-61
2022/10/15 04:56:49;;;;;;;76.93;33.50;;;12.50;99.90;;;;;;5034268;28;20206;-61
2022/10/15 04:59:16;;;;;;;79.27;32.93;;;12.50;99.90;;;;;;5034466;28;20230;-64
2022/10/15 05:01:43;;;;;;;87.40;33.37;;;12.50;99.90;;;;;;5034414;28;20272;-61
2022/10/15 05:04:11;;;;;;;81.10;32.77;;;12.50;99.90;;;;;;5034378;28;20206;-61
2022/10/15 05:06:39;;;;;;;85.27;34.73;;;12.60;99.90;;;;;;5033925;28;20318;-61
2022/10/15 05:09:06;;;;;;;80.33;31.47;;;12.50;99.90;;;;;;5033963;28;20234;-61
2022/10/15 05:11:36;;;;;;;88.83;33.57;;;12.50;99.90;;;;;;5034205;28;20257;-61
2022/10/15 05:14:04;;;;;;;77.93;33.00;;;12.50;99.90;;;;;;5034156;28;20253;-61
2022/10/15 05:16:31;;;;;;;80.47;32.73;;;12.50;99.90;;;;;;5033828;28;20673;-61
2022/10/15 05:18:59;;;;;;;80.00;32.47;;;12.50;99.90;;;;;;5034080;28;20222;-61
2022/10/15 05:21:27;;;;;;;81.33;32.67;;;12.50;99.90;;;;;;5033711;28;20256;-60
2022/10/15 05:23:55;;;;;;;73.47;30.20;;;12.50;99.90;;;;;;5033992;28;20210;-61
2022/10/15 05:26:24;;;;;;;71.27;31.30;;;12.50;99.90;;;;;;5033652;28;20222;-61
2022/10/15 05:28:51;;;;;;;80.57;31.83;;;12.50;99.90;;;;;;5033600;28;20716;-61
2022/10/15 05:31:20;;;;;;;77.53;32.60;;;12.50;99.90;;;;;;5033905;28;20233;-61
2022/10/15 05:33:46;;;;;;;78.77;31.27;;;12.50;99.90;;;;;;5033472;28;20260;-61
2022/10/15 05:36:16;;;;;;;74.77;31.20;;;12.50;99.90;;;;;;5033795;28;20210;-61
2022/10/15 05:38:43;;;;;;;81.83;32.07;;;12.50;99.90;;;;;;5033453;28;20230;-64
2022/10/15 05:41:11;;;;;;;79.87;31.43;;;12.50;99.90;;;;;;5033628;28;20210;-61
2022/10/15 05:43:37;;;;;;;74.60;31.87;;;12.50;99.90;;;;;;5033449;28;20268;-61
2022/10/15 05:46:04;;;;;;;65.80;29.73;;;12.50;99.90;;;;;;5033143;28;20272;-61
2022/10/15 05:48:31;;;;;;;77.43;32.20;;;12.40;99.90;;;;;;5033138;28;20206;-61
2022/10/15 05:51:02;;;;;;;74.70;31.17;;;12.40;99.90;;;;;;5033238;28;20677;-61
2022/10/15 05:53:28;;;;;;;81.73;33.33;;;12.40;99.90;;;;;;5033485;28;20665;-61
2022/10/15 05:55:57;;;;;;;85.20;34.70;;;12.30;99.90;;;;;;5032221;28;20207;-60
2022/10/15 05:58:25;;;;;;;78.07;31.90;;;12.40;99.90;;;;;;5033101;28;20212;-61
2022/10/15 06:00:55;;;;;;;81.13;32.80;;;12.40;99.90;;;;;;5033099;28;20209;-61
2022/10/15 06:03:22;;;;;;;94.93;35.03;;;12.40;99.90;;;;;;5033160;28;20206;-60
2022/10/15 06:05:49;;;;;;;88.67;35.10;;;12.50;99.90;;;;;;5032905;28;20313;-61
2022/10/15 06:08:16;;;;;;;95.17;36.50;;;12.50;99.90;;;;;;5033027;28;20256;-61
2022/10/15 06:10:43;;;;;;;93.27;36.20;;;12.50;99.90;;;;;;5032807;28;20685;-61
2022/10/15 06:13:10;;;;;;;102.20;38.50;;;12.50;99.90;;;;;;5033073;28;20207;-60
2022/10/15 06:15:41;;;;;;;85.33;35.60;;;12.50;99.90;;;;;;5032724;28;20199;-61
2022/10/15 06:18:08;;;;;;;91.70;35.53;;;12.60;99.90;;;;;;5032768;28;20633;-60
2022/10/15 06:20:35;;;;;;;99.67;38.07;;;12.60;99.90;;;;;;5032677;28;20283;-61
2022/10/15 06:23:03;;;;;;;89.97;36.40;;;12.70;99.90;;;;;;5032560;28;20695;-61
2022/10/15 06:25:30;;;;;;;96.27;35.43;;;12.70;99.90;;;;;;5032583;28;20202;-61
2022/10/15 06:28:01;;;;;;;89.50;34.53;;;12.70;99.90;;;;;;5032288;28;20636;-61
2022/10/15 06:30:28;;;;;;;97.40;35.60;;;12.70;99.90;;;;;;5032551;28;20234;-61
2022/10/15 06:32:56;;;;;;;94.30;34.97;;;12.70;99.90;;;;;;5032249;28;20259;-61
2022/10/15 06:35:25;;;;;;;93.30;35.27;;;12.70;99.90;;;;;;5032771;28;20202;-61
2022/10/15 06:37:52;;;;;;;92.20;33.03;;;12.70;99.90;;;;;;5032090;28;20211;-61
2022/10/15 06:40:19;;;;;;;85.13;33.03;;;12.70;99.90;;;;;;5032116;28;20226;-61
2022/10/15 06:42:45;;;;;;;88.43;33.37;;;12.70;99.90;;;;;;5032156;28;20210;-61
2022/10/15 06:45:12;;;;;;;81.33;30.43;;;12.70;99.90;;;;;;5032391;28;20218;-61
2022/10/15 06:47:41;;;;;;;88.63;31.70;;;12.70;99.90;;;;;;5032070;28;20317;-61
2022/10/15 06:50:09;;;;;;;86.37;33.03;;;12.70;99.90;;;;;;5032371;28;20313;-61
2022/10/15 06:52:36;;;;;;;83.00;32.23;;;12.70;99.90;;;;;;5032233;28;20206;-61
2022/10/15 06:55:03;;;;;;;78.13;30.57;;;12.60;99.90;;;;;;5031924;28;20677;-60
2022/10/15 06:57:30;;;;;;;83.57;31.20;;;12.60;99.90;;;;;;5032198;28;20206;-61
2022/10/15 06:59:57;;;;;;;75.83;30.20;;;12.60;99.90;;;;;;5032287;28;20226;-60
2022/10/15 07:02:23;;;;;;;83.23;30.80;;;12.60;99.90;;;;;;5032068;28;20213;-61
2022/10/15 07:04:50;;;;;;;79.43;30.80;;;12.60;99.90;;;;;;5031933;28;20206;-61
2022/10/15 07:07:18;;;;;;;78.17;29.33;;;12.60;99.90;;;;;;5031655;28;20233;-60
2022/10/15 07:09:46;;;;;;;83.27;29.30;;;12.60;99.90;;;;;;5031717;28;20222;-60
2022/10/15 07:12:13;;;;;;;89.00;31.27;;;12.60;99.90;;;;;;5032367;28;20210;-61
2022/10/15 07:14:39;;;;;;;80.57;31.67;;;12.70;99.90;;;;;;5031867;28;20210;-61
2022/10/15 07:17:07;;;;;;;82.47;30.87;;;12.80;99.90;;;;;;5031700;28;20198;-61
2022/10/15 07:19:34;;;;;;;84.80;30.77;;;12.80;99.90;;;;;;5031583;28;20744;-61
2022/10/15 07:22:01;;;;;;;81.20;31.50;;;12.90;99.90;;;;;;5031792;28;20693;-61
2022/10/15 07:24:29;;;;;;;86.23;33.07;;;12.90;99.90;;;;;;5031563;28;20676;-61
2022/10/15 07:26:55;;;;;;;87.37;32.47;;;12.90;99.90;;;;;;5031600;28;20226;-60
2022/10/15 07:29:22;;;;;;;90.37;34.17;;;12.90;99.90;;;;;;5031830;28;20234;-61
2022/10/15 07:31:49;;;;;;;96.43;35.03;;;12.90;99.90;;;;;;5031915;28;20213;-61
2022/10/15 07:34:15;;;;;;;92.67;35.23;;;12.90;99.90;;;;;;5031846;28;20586;-61
2022/10/15 07:36:42;;;;;;;92.40;35.77;;;13.00;99.90;;;;;;5031231;28;20210;-61
2022/10/15 07:39:09;;;;;;;93.63;34.90;;;13.00;99.90;;;;;;5031327;28;20725;-61
2022/10/15 07:41:37;;;;;;;94.13;36.27;;;13.00;99.90;;;;;;5031611;28;20264;-61
2022/10/15 07:44:04;;;;;;;94.67;35.67;;;13.00;99.90;;;;;;5031766;28;20210;-61
2022/10/15 07:46:31;;;;;;;100.23;36.17;;;13.10;99.90;;;;;;5031229;28;20599;-61
2022/10/15 07:48:57;;;;;;;96.20;36.43;;;13.10;99.90;;;;;;5031409;28;20741;-60
2022/10/15 07:51:24;;;;;;;113.30;40.27;;;13.20;99.90;;;;;;5031517;28;20210;-61
2022/10/15 07:53:51;;;;;;;98.60;33.80;;;13.30;99.90;;;;;;5031437;28;20241;-61
2022/10/15 07:56:18;;;;;;;110.37;37.37;;;13.30;99.90;;;;;;5031446;28;20293;-61
2022/10/15 07:58:50;;;;;;;89.50;33.93;;;13.40;99.90;;;;;;5031346;28;20229;-61
2022/10/15 08:01:18;;;;;;;97.80;36.40;;;13.40;99.90;;;;;;5031797;28;20209;-61
2022/10/15 08:03:45;;;;;;;104.40;35.13;;;13.40;99.90;;;;;;5031272;28;20210;-61
2022/10/15 08:06:12;;;;;;;82.80;32.87;;;13.50;99.90;;;;;;5031340;28;20226;-61
2022/10/15 08:08:38;;;;;;;85.27;30.97;;;13.40;99.90;;;;;;5031386;28;20230;-61
2022/10/15 08:11:06;;;;;;;70.57;30.50;;;13.40;99.90;;;;;;5031636;28;20217;-61
2022/10/15 08:13:32;;;;;;;72.20;29.80;;;13.50;99.90;;;;;;5031505;28;20210;-61
2022/10/15 08:16:00;;;;;;;66.40;28.07;;;13.50;99.90;;;;;;5030993;28;20213;-62
2022/10/15 08:18:27;;;;;;;61.20;27.43;;;13.60;99.90;;;;;;5031232;28;20334;-62
2022/10/15 08:20:54;;;;;;;56.17;27.53;;;13.60;99.90;;;;;;5034978;28;20206;-62
2022/10/15 08:23:20;;;;;;;53.30;25.73;;;13.70;99.90;;;;;;5035122;28;20206;-61
2022/10/15 08:25:47;;;;;;;42.70;23.67;;;13.80;99.90;;;;;;5034884;28;20207;-62
2022/10/15 08:28:14;;;;;;;40.60;23.10;;;13.90;99.90;;;;;;5035110;28;20578;-62
2022/10/15 08:30:40;;;;;;;37.87;22.57;;;13.90;99.90;;;;;;5034850;28;20864;-62
2022/10/15 08:33:09;;;;;;;31.47;18.47;;;14.10;99.90;;;;;;5034346;28;20240;-62
2022/10/15 08:35:38;;;;;;;29.13;17.17;;;14.20;99.90;;;;;;5034536;28;20257;-62
2022/10/15 08:38:04;;;;;;;24.97;15.93;;;14.30;99.90;;;;;;5034469;28;20750;-62
2022/10/15 08:40:31;;;;;;;21.03;15.10;;;14.30;99.90;;;;;;5034735;28;20272;-61
2022/10/15 08:42:58;;;;;;;20.57;14.27;;;14.40;99.90;;;;;;5034645;28;20231;-62
2022/10/15 08:45:30;;;;;;;17.60;12.83;;;14.40;99.90;;;;;;5034365;28;20206;-62
2022/10/15 08:48:02;;;;;;;15.77;11.30;;;14.50;99.90;;;;;;5034736;28;20636;-62
2022/10/15 08:50:38;;;;;;;15.50;11.87;;;14.60;99.90;;;;;;5034672;28;20238;-61
2022/10/15 08:53:05;;;;;;;18.07;9.90;;;14.70;99.90;;;;;;5034544;28;20271;-62
2022/10/15 08:55:38;;;;;;;15.10;9.27;;;14.70;99.90;;;;;;5034605;28;20610;-62
2022/10/15 08:58:13;;;;;;;13.10;8.37;;;14.80;99.90;;;;;;5034544;28;20189;-61
2022/10/15 09:00:44;;;;;;;10.23;7.03;;;14.80;99.90;;;;;;5034513;28;20221;-62
2022/10/15 09:03:23;;;;;;;8.43;5.80;;;15.00;99.90;;;;;;5034321;28;20626;-62
2022/10/15 09:05:57;;;;;;;7.37;5.33;;;15.10;99.90;;;;;;5034410;28;20194;-62
2022/10/15 09:08:30;;;;;;;7.20;4.60;;;15.10;99.90;;;;;;5034256;28;20210;-62
2022/10/15 09:11:00;;;;;;;5.20;3.93;;;15.00;99.90;;;;;;5034401;28;20210;-62
2022/10/15 09:13:31;;;;;;;4.67;3.57;;;15.20;99.90;;;;;;5034315;28;20210;-62
2022/10/15 09:16:01;;;;;;;7.30;3.70;;;15.30;99.90;;;;;;5034124;28;20217;-62
2022/10/15 09:18:31;;;;;;;4.60;2.73;;;15.30;99.90;;;;;;5034172;28;20202;-62
2022/10/15 09:21:01;;;;;;;3.33;2.90;;;15.40;99.90;;;;;;5033555;28;20581;-61
2022/10/15 09:23:29;;;;;;;3.53;2.43;;;15.60;99.90;;;;;;5034014;28;20191;-62
2022/10/15 09:26:03;;;;;;;3.77;2.10;;;15.70;99.90;;;;;;5033546;28;20301;-61
2022/10/15 09:28:37;;;;;;;1.97;1.60;;;15.90;99.90;;;;;;5041908;28;20774;-62
2022/10/15 09:31:07;;;;;;;2.80;1.60;;;15.90;99.90;;;;;;5051385;28;20393;-62
2022/10/15 09:33:39;;;;;;;1.87;1.50;;;15.90;99.90;;;;;;5052943;28;20625;-63
2022/10/15 09:36:18;;;;;;;2.30;1.23;;;15.80;99.90;;;;;;5054043;28;20244;-62
2022/10/15 09:38:54;;;;;;;1.60;1.30;;;15.70;99.90;;;;;;5053313;28;20226;-62
2022/10/15 09:41:31;;;;;;;2.37;1.07;;;15.70;99.90;;;;;;5052948;28;20296;-64
2022/10/15 09:44:00;;;;;;;1.30;1.03;;;15.80;99.90;;;;;;5052795;28;20205;-64
2022/10/15 09:46:26;;;;;;;1.63;0.67;;;16.00;99.90;;;;;;5052906;28;20259;-64
2022/10/15 09:49:03;;;;;;;0.70;0.70;;;16.00;99.90;;;;;;5052532;28;20275;-64
2022/10/15 09:51:35;;;;;;;1.27;0.77;;;16.00;99.90;;;;;;5052894;28;20263;-68
2022/10/15 09:54:09;;;;;;;2.20;0.70;;;16.00;99.90;;;;;;5053177;28;20193;-68
2022/10/15 09:56:39;;;;;;;2.97;0.60;;;16.10;99.90;;;;;;5049325;28;20213;-70
2022/10/15 09:59:06;;;;;;;0.60;0.53;;;16.20;99.90;;;;;;5052244;28;20228;-69
2022/10/15 10:01:33;;;;;;;1.40;1.10;;;16.30;99.90;;;;;;5052590;28;20581;-72
2022/10/15 10:04:12;;;;;;;0.57;0.50;;;16.20;99.90;;;;;;5052557;28;20205;-65
2022/10/15 10:06:50;;;;;;;1.47;0.77;;;16.20;99.90;;;;;;5051880;28;20668;-66
2022/10/15 10:09:20;;;;;;;1.40;0.40;;;16.20;99.90;;;;;;5052032;28;20795;-64
2022/10/15 10:11:50;;;;;;;0.60;0.50;;;16.20;99.90;;;;;;5051402;28;20217;-65
2022/10/15 10:14:25;;;;;;;0.83;0.50;;;16.20;99.90;;;;;;5052222;28;20382;-66
2022/10/15 10:17:12;;;;;;;0.30;0.30;;;16.20;99.90;;;;;;5052132;28;20258;-64
2022/10/15 10:19:39;;;;;;;0.93;0.50;;;16.10;99.90;;;;;;5051721;28;20226;-63
2022/10/15 10:22:16;;;;;;;1.47;0.73;;;16.10;99.90;;;;;;5052158;28;20213;-64
2022/10/15 10:24:43;;;;;;;1.47;0.70;;;16.20;99.90;;;;;;5051908;28;20247;-64
2022/10/15 10:27:22;;;;;;;0.60;0.40;;;16.30;99.90;;;;;;5051571;28;20225;-63
2022/10/15 10:29:54;;;;;;;1.57;0.50;;;16.50;99.90;;;;;;5045646;28;20245;-60
2022/10/15 10:32:23;;;;;;;1.30;0.43;;;16.50;99.90;;;;;;5051736;28;20201;-65
2022/10/15 10:34:50;;;;;;;1.40;0.60;;;16.40;99.90;;;;;;5051703;28;20236;-62
2022/10/15 10:37:18;;;;;;;0.50;0.40;;;16.40;99.90;;;;;;5051668;28;20202;-66
2022/10/15 10:39:46;;;;;;;1.17;0.30;;;16.40;99.90;;;;;;5051693;28;20230;-66
2022/10/15 10:42:32;;;;;;;0.63;0.40;;;16.40;99.90;;;;;;5051155;28;20216;-65
2022/10/15 10:45:19;;;;;;;1.43;0.60;;;16.40;99.90;;;;;;5051574;28;20256;-66
2022/10/15 10:47:46;;;;;;;0.77;0.53;;;16.40;99.90;;;;;;5051477;28;20225;-65
2022/10/15 10:50:32;;;;;;;0.53;0.30;;;16.50;99.90;;;;;;5051567;28;20267;-61
2022/10/15 10:53:14;;;;;;;1.50;0.40;;;16.50;99.90;;;;;;5051532;28;20210;-62
2022/10/15 10:55:41;;;;;;;2.10;0.57;;;16.50;99.90;;;;;;5051547;28;20722;-61
2022/10/15 10:58:15;;;;;;;6.73;3.33;;;16.60;99.90;;;;;;5051153;28;20259;-65
2022/10/15 11:00:45;;;;;;;0.87;0.40;;;16.50;99.90;;;;;;5051547;28;20229;-64
2022/10/15 11:03:21;;;;;;;0.40;0.40;;;16.50;99.90;;;;;;5051418;28;20206;-65
2022/10/15 11:05:50;;;;;;;0.97;0.50;;;16.40;99.90;;;;;;5051950;28;20194;-64
2022/10/15 11:08:28;;;;;;;1.53;0.40;;;16.30;99.90;;;;;;5051596;28;20226;-64
2022/10/15 11:11:03;;;;;;;0.90;0.40;;;16.20;99.90;;;;;;5051406;28;20206;-64
2022/10/15 11:13:44;;;;;;;0.47;0.40;;;16.20;99.90;;;;;;5049587;28;20208;-61
2022/10/15 11:16:21;;;;;;;0.60;0.40;;;16.20;99.90;;;;;;5051574;28;20205;-61
2022/10/15 11:18:59;;;;;;;0.73;0.40;;;16.20;99.90;;;;;;5051313;28;20225;-61
2022/10/15 11:21:37;;;;;;;0.50;0.40;;;16.20;99.90;;;;;;5051846;28;20209;-61
2022/10/15 11:24:12;;;;;;;0.63;0.43;;;16.10;99.90;;;;;;5037419;28;20676;-64
2022/10/15 11:26:56;;;;;;;4.10;0.60;;;16.20;99.90;;;;;;5031141;28;20328;-64
2022/10/15 11:29:34;;;;;;;0.73;0.50;;;16.20;99.90;;;;;;5031132;28;20230;-63
2022/10/15 11:32:12;;;;;;;0.93;0.40;;;16.30;99.90;;;;;;5031391;28;20628;-62
2022/10/15 11:34:46;;;;;;;2.10;0.40;;;16.50;99.90;;;;;;5031352;28;20221;-62
2022/10/15 11:37:29;;;;;;;3.33;0.40;;;16.60;99.90;;;;;;5031348;28;20573;-63
2022/10/15 11:40:14;;;;;;;0.60;0.60;;;16.70;99.90;;;;;;5031364;28;20240;-62
2022/10/15 11:42:51;;;;;;;3.87;0.93;;;16.60;99.90;;;;;;5031121;28;20210;-64
2022/10/15 11:45:51;;;;;;;3.87;1.10;;;16.70;99.90;;;;;;5032136;28;20677;-64
2022/10/15 11:48:30;;;;;;;5.30;1.33;;;16.70;99.90;;;;;;5012618;28;20602;-64
2022/10/15 11:51:03;;;;;;;2.17;0.53;;;16.70;99.90;;;;;;5032285;28;20225;-65
2022/10/15 11:53:51;;;;;;;1.57;0.50;;;16.70;99.90;;;;;;5032633;28;20700;-65
2022/10/15 11:56:24;;;;;;;0.80;0.70;;;16.80;99.90;;;;;;5036325;28;20727;-67
2022/10/15 11:58:55;;;;;;;1.57;0.67;;;16.90;99.90;;;;;;5035881;28;20312;-65
2022/10/15 12:01:28;;;;;;;1.20;0.80;;;17.00;99.90;;;;;;5038863;28;20661;-65
2022/10/15 12:03:59;;;;;;;0.93;0.70;;;17.10;99.90;;;;;;5054856;28;20657;-63
2022/10/15 12:06:30;;;;;;;1.33;1.00;;;17.00;99.90;;;;;;5055124;28;20254;-60
2022/10/15 12:08:58;;;;;;;0.93;0.47;;;17.00;99.90;;;;;;5054804;28;20700;-60
2022/10/15 12:11:41;;;;;;;2.87;0.80;;;16.90;99.90;;;;;;5054744;28;20691;-60
2022/10/15 12:14:19;;;;;;;2.63;0.67;;;16.90;99.90;;;;;;5055141;28;20210;-60
2022/10/15 12:16:54;;;;;;;1.93;0.93;;;16.90;99.90;;;;;;5054799;28;20213;-63
2022/10/15 12:19:25;;;;;;;1.87;0.50;;;16.90;99.90;;;;;;5054225;28;20765;-60
2022/10/15 12:22:09;;;;;;;0.97;0.60;;;17.00;99.90;;;;;;5054786;28;20201;-60
2022/10/15 12:24:53;;;;;;;1.97;0.67;;;17.00;99.90;;;;;;5054592;28;20818;-58
2022/10/15 12:27:27;;;;;;;1.43;0.63;;;17.00;99.90;;;;;;5054429;28;20212;-59
2022/10/15 12:30:19;;;;;;;4.37;0.77;;;17.00;99.90;;;;;;5054455;28;20238;-60
2022/10/15 12:32:47;;;;;;;0.63;0.60;;;17.00;99.90;;;;;;5054600;28;20833;-60
2022/10/15 12:35:44;;;;;;;2.13;0.60;;;17.10;99.90;;;;;;5054485;28;20230;-60
2022/10/15 12:38:24;;;;;;;0.50;0.40;;;17.10;99.90;;;;;;5049117;28;20206;-60
2022/10/15 12:41:05;;;;;;;1.33;0.60;;;17.00;99.90;;;;;;5053978;28;20217;-60
2022/10/15 12:43:36;;;;;;;1.87;0.70;;;17.00;99.90;;;;;;5054284;28;20672;-60
2022/10/15 12:46:05;;;;;;;0.87;0.70;;;17.00;99.90;;;;;;5054391;28;20240;-60
2022/10/15 12:48:35;;;;;;;0.60;0.60;;;17.10;99.90;;;;;;5054183;28;20236;-60